sensor_id;sensor_type;location;lat;lon;timestamp;P1;durP1;ratioP1;P2;durP2;ratioP2
38609;SDS011;24367;51.640;9.566;2023-04-24T00:01:50;1.40;;;0.70;;
38609;SDS011;24367;51.640;9.566;2023-04-24T00:04:17;1.52;;;0.70;;
38609;SDS011;24367;51.640;9.566;2023-04-24T00:06:44;1.13;;;0.73;;
38609;SDS011;24367;51.640;9.566;2023-04-24T00:09:14;1.27;;;0.70;;
38609;SDS011;24367;51.640;9.566;2023-04-24T00:11:40;1.80;;;0.90;;
38609;SDS011;24367;51.640;9.566;2023-04-24T00:14:07;1.70;;;0.90;;
38609;SDS011;24367;51.640;9.566;2023-04-24T00:16:33;0.98;;;0.55;;
38609;SDS011;24367;51.640;9.566;2023-04-24T00:19:00;1.33;;;0.75;;
38609;SDS011;24367;51.640;9.566;2023-04-24T00:21:26;1.48;;;0.70;;
38609;SDS011;24367;51.640;9.566;2023-04-24T00:23:54;1.25;;;0.75;;
38609;SDS011;24367;51.640;9.566;2023-04-24T00:26:21;1.00;;;0.70;;
38609;SDS011;24367;51.640;9.566;2023-04-24T00:28:48;1.25;;;0.70;;
38609;SDS011;24367;51.640;9.566;2023-04-24T00:31:14;1.52;;;0.82;;
38609;SDS011;24367;51.640;9.566;2023-04-24T00:33:41;3.17;;;0.88;;
38609;SDS011;24367;51.640;9.566;2023-04-24T00:36:08;1.45;;;0.90;;
38609;SDS011;24367;51.640;9.566;2023-04-24T00:38:34;1.75;;;0.90;;
38609;SDS011;24367;51.640;9.566;2023-04-24T00:41:03;1.17;;;0.70;;
38609;SDS011;24367;51.640;9.566;2023-04-24T00:43:29;1.27;;;0.68;;
38609;SDS011;24367;51.640;9.566;2023-04-24T00:45:56;1.35;;;0.70;;
38609;SDS011;24367;51.640;9.566;2023-04-24T00:48:22;5.95;;;0.80;;
38609;SDS011;24367;51.640;9.566;2023-04-24T00:50:49;2.25;;;0.75;;
38609;SDS011;24367;51.640;9.566;2023-04-24T00:53:15;1.95;;;0.88;;
38609;SDS011;24367;51.640;9.566;2023-04-24T00:55:42;1.25;;;0.80;;
38609;SDS011;24367;51.640;9.566;2023-04-24T00:58:10;1.10;;;0.70;;
38609;SDS011;24367;51.640;9.566;2023-04-24T01:00:36;1.42;;;0.70;;
38609;SDS011;24367;51.640;9.566;2023-04-24T01:03:03;1.10;;;0.70;;
38609;SDS011;24367;51.640;9.566;2023-04-24T01:05:31;1.55;;;0.80;;
38609;SDS011;24367;51.640;9.566;2023-04-24T01:07:58;1.30;;;0.60;;
38609;SDS011;24367;51.640;9.566;2023-04-24T01:10:25;1.23;;;0.65;;
38609;SDS011;24367;51.640;9.566;2023-04-24T01:12:53;1.80;;;0.80;;
38609;SDS011;24367;51.640;9.566;2023-04-24T01:15:21;1.05;;;0.70;;
38609;SDS011;24367;51.640;9.566;2023-04-24T01:17:47;1.33;;;0.60;;
38609;SDS011;24367;51.640;9.566;2023-04-24T01:20:15;1.40;;;0.70;;
38609;SDS011;24367;51.640;9.566;2023-04-24T01:22:43;1.63;;;0.65;;
38609;SDS011;24367;51.640;9.566;2023-04-24T01:25:09;1.25;;;0.70;;
38609;SDS011;24367;51.640;9.566;2023-04-24T01:27:35;1.40;;;0.70;;
38609;SDS011;24367;51.640;9.566;2023-04-24T01:30:04;1.02;;;0.60;;
38609;SDS011;24367;51.640;9.566;2023-04-24T01:32:31;1.50;;;0.60;;
38609;SDS011;24367;51.640;9.566;2023-04-24T01:34:58;1.52;;;0.70;;
38609;SDS011;24367;51.640;9.566;2023-04-24T01:37:24;1.38;;;0.70;;
38609;SDS011;24367;51.640;9.566;2023-04-24T01:39:53;1.20;;;0.70;;
38609;SDS011;24367;51.640;9.566;2023-04-24T01:42:19;1.88;;;0.63;;
38609;SDS011;24367;51.640;9.566;2023-04-24T01:44:46;1.00;;;0.63;;
38609;SDS011;24367;51.640;9.566;2023-04-24T01:47:13;1.13;;;0.70;;
38609;SDS011;24367;51.640;9.566;2023-04-24T01:49:39;1.25;;;0.60;;
38609;SDS011;24367;51.640;9.566;2023-04-24T01:52:06;1.40;;;0.80;;
38609;SDS011;24367;51.640;9.566;2023-04-24T01:54:32;1.00;;;0.60;;
38609;SDS011;24367;51.640;9.566;2023-04-24T01:57:02;1.08;;;0.60;;
38609;SDS011;24367;51.640;9.566;2023-04-24T01:59:28;0.82;;;0.55;;
38609;SDS011;24367;51.640;9.566;2023-04-24T02:01:56;1.77;;;0.73;;
38609;SDS011;24367;51.640;9.566;2023-04-24T02:04:22;1.10;;;0.68;;
38609;SDS011;24367;51.640;9.566;2023-04-24T02:06:48;1.10;;;0.65;;
38609;SDS011;24367;51.640;9.566;2023-04-24T02:09:15;1.17;;;0.60;;
38609;SDS011;24367;51.640;9.566;2023-04-24T02:11:42;0.90;;;0.50;;
38609;SDS011;24367;51.640;9.566;2023-04-24T02:14:09;1.33;;;0.50;;
38609;SDS011;24367;51.640;9.566;2023-04-24T02:16:38;1.38;;;0.70;;
38609;SDS011;24367;51.640;9.566;2023-04-24T02:19:05;1.08;;;0.60;;
38609;SDS011;24367;51.640;9.566;2023-04-24T02:21:31;1.48;;;0.50;;
38609;SDS011;24367;51.640;9.566;2023-04-24T02:23:58;1.02;;;0.60;;
38609;SDS011;24367;51.640;9.566;2023-04-24T02:26:24;1.13;;;0.60;;
38609;SDS011;24367;51.640;9.566;2023-04-24T02:28:51;0.70;;;0.50;;
38609;SDS011;24367;51.640;9.566;2023-04-24T02:31:20;1.05;;;0.60;;
38609;SDS011;24367;51.640;9.566;2023-04-24T02:33:47;1.00;;;0.50;;
38609;SDS011;24367;51.640;9.566;2023-04-24T02:36:14;1.20;;;0.60;;
38609;SDS011;24367;51.640;9.566;2023-04-24T02:38:41;0.77;;;0.60;;
38609;SDS011;24367;51.640;9.566;2023-04-24T02:41:07;1.15;;;0.57;;
38609;SDS011;24367;51.640;9.566;2023-04-24T02:43:34;1.63;;;0.80;;
38609;SDS011;24367;51.640;9.566;2023-04-24T02:46:01;1.38;;;0.80;;
38609;SDS011;24367;51.640;9.566;2023-04-24T02:48:29;1.33;;;0.50;;
38609;SDS011;24367;51.640;9.566;2023-04-24T02:50:55;0.90;;;0.52;;
38609;SDS011;24367;51.640;9.566;2023-04-24T02:53:22;1.05;;;0.60;;
38609;SDS011;24367;51.640;9.566;2023-04-24T02:55:49;0.93;;;0.63;;
38609;SDS011;24367;51.640;9.566;2023-04-24T02:58:15;0.70;;;0.50;;
38609;SDS011;24367;51.640;9.566;2023-04-24T03:00:42;1.30;;;0.60;;
38609;SDS011;24367;51.640;9.566;2023-04-24T03:03:09;0.88;;;0.60;;
38609;SDS011;24367;51.640;9.566;2023-04-24T03:05:37;0.93;;;0.60;;
38609;SDS011;24367;51.640;9.566;2023-04-24T03:08:03;1.15;;;0.60;;
38609;SDS011;24367;51.640;9.566;2023-04-24T03:10:31;1.25;;;0.40;;
38609;SDS011;24367;51.640;9.566;2023-04-24T03:12:57;1.02;;;0.60;;
38609;SDS011;24367;51.640;9.566;2023-04-24T03:15:24;1.23;;;0.60;;
38609;SDS011;24367;51.640;9.566;2023-04-24T03:17:50;1.30;;;0.63;;
38609;SDS011;24367;51.640;9.566;2023-04-24T03:20:17;0.98;;;0.60;;
38609;SDS011;24367;51.640;9.566;2023-04-24T03:22:45;0.60;;;0.40;;
38609;SDS011;24367;51.640;9.566;2023-04-24T03:25:11;0.90;;;0.43;;
38609;SDS011;24367;51.640;9.566;2023-04-24T03:27:37;0.80;;;0.50;;
38609;SDS011;24367;51.640;9.566;2023-04-24T03:30:22;1.25;;;0.70;;
38609;SDS011;24367;51.640;9.566;2023-04-24T03:32:54;1.83;;;0.60;;
38609;SDS011;24367;51.640;9.566;2023-04-24T03:35:25;1.25;;;0.60;;
38609;SDS011;24367;51.640;9.566;2023-04-24T03:37:53;1.40;;;0.45;;
38609;SDS011;24367;51.640;9.566;2023-04-24T03:40:38;1.15;;;0.50;;
38609;SDS011;24367;51.640;9.566;2023-04-24T03:43:16;1.13;;;0.60;;
38609;SDS011;24367;51.640;9.566;2023-04-24T03:45:43;2.67;;;0.55;;
38609;SDS011;24367;51.640;9.566;2023-04-24T03:48:11;0.80;;;0.40;;
38609;SDS011;24367;51.640;9.566;2023-04-24T03:50:37;1.08;;;0.52;;
38609;SDS011;24367;51.640;9.566;2023-04-24T03:53:07;0.98;;;0.50;;
38609;SDS011;24367;51.640;9.566;2023-04-24T03:55:37;0.75;;;0.40;;
38609;SDS011;24367;51.640;9.566;2023-04-24T03:58:04;1.48;;;0.68;;
38609;SDS011;24367;51.640;9.566;2023-04-24T04:00:31;0.73;;;0.40;;
38609;SDS011;24367;51.640;9.566;2023-04-24T04:03:18;0.98;;;0.50;;
38609;SDS011;24367;51.640;9.566;2023-04-24T04:05:44;1.17;;;0.50;;
38609;SDS011;24367;51.640;9.566;2023-04-24T04:08:12;0.88;;;0.50;;
38609;SDS011;24367;51.640;9.566;2023-04-24T04:10:39;1.05;;;0.60;;
38609;SDS011;24367;51.640;9.566;2023-04-24T04:13:05;1.30;;;0.60;;
38609;SDS011;24367;51.640;9.566;2023-04-24T04:15:32;0.95;;;0.50;;
38609;SDS011;24367;51.640;9.566;2023-04-24T04:17:59;1.85;;;0.57;;
38609;SDS011;24367;51.640;9.566;2023-04-24T04:20:25;1.17;;;0.55;;
38609;SDS011;24367;51.640;9.566;2023-04-24T04:22:52;1.02;;;0.52;;
38609;SDS011;24367;51.640;9.566;2023-04-24T04:25:27;0.90;;;0.60;;
38609;SDS011;24367;51.640;9.566;2023-04-24T04:27:54;0.75;;;0.60;;
38609;SDS011;24367;51.640;9.566;2023-04-24T04:30:23;0.82;;;0.52;;
38609;SDS011;24367;51.640;9.566;2023-04-24T04:32:55;1.05;;;0.50;;
38609;SDS011;24367;51.640;9.566;2023-04-24T04:35:22;0.80;;;0.50;;
38609;SDS011;24367;51.640;9.566;2023-04-24T04:37:51;0.90;;;0.50;;
38609;SDS011;24367;51.640;9.566;2023-04-24T04:40:34;0.88;;;0.40;;
38609;SDS011;24367;51.640;9.566;2023-04-24T04:43:04;0.77;;;0.52;;
38609;SDS011;24367;51.640;9.566;2023-04-24T04:45:39;0.90;;;0.50;;
38609;SDS011;24367;51.640;9.566;2023-04-24T04:48:21;0.43;;;0.40;;
38609;SDS011;24367;51.640;9.566;2023-04-24T04:50:48;1.15;;;0.63;;
38609;SDS011;24367;51.640;9.566;2023-04-24T04:53:15;1.00;;;0.60;;
38609;SDS011;24367;51.640;9.566;2023-04-24T04:55:43;0.68;;;0.50;;
38609;SDS011;24367;51.640;9.566;2023-04-24T04:58:13;0.90;;;0.50;;
38609;SDS011;24367;51.640;9.566;2023-04-24T05:00:39;0.60;;;0.40;;
38609;SDS011;24367;51.640;9.566;2023-04-24T05:03:26;0.65;;;0.40;;
38609;SDS011;24367;51.640;9.566;2023-04-24T05:05:58;1.70;;;0.45;;
38609;SDS011;24367;51.640;9.566;2023-04-24T05:08:26;0.95;;;0.52;;
38609;SDS011;24367;51.640;9.566;2023-04-24T05:10:54;1.08;;;0.65;;
38609;SDS011;24367;51.640;9.566;2023-04-24T05:13:20;0.80;;;0.50;;
38609;SDS011;24367;51.640;9.566;2023-04-24T05:15:47;0.57;;;0.40;;
38609;SDS011;24367;51.640;9.566;2023-04-24T05:18:14;0.70;;;0.50;;
38609;SDS011;24367;51.640;9.566;2023-04-24T05:20:42;0.90;;;0.40;;
38609;SDS011;24367;51.640;9.566;2023-04-24T05:23:09;0.82;;;0.50;;
38609;SDS011;24367;51.640;9.566;2023-04-24T05:25:38;0.82;;;0.50;;
38609;SDS011;24367;51.640;9.566;2023-04-24T05:28:10;0.75;;;0.50;;
38609;SDS011;24367;51.640;9.566;2023-04-24T05:30:37;1.15;;;0.70;;
38609;SDS011;24367;51.640;9.566;2023-04-24T05:33:03;0.73;;;0.50;;
38609;SDS011;24367;51.640;9.566;2023-04-24T05:35:32;0.85;;;0.50;;
38609;SDS011;24367;51.640;9.566;2023-04-24T05:37:59;0.95;;;0.60;;
38609;SDS011;24367;51.640;9.566;2023-04-24T05:40:26;0.98;;;0.55;;
38609;SDS011;24367;51.640;9.566;2023-04-24T05:42:52;1.17;;;0.50;;
38609;SDS011;24367;51.640;9.566;2023-04-24T05:45:21;1.00;;;0.50;;
38609;SDS011;24367;51.640;9.566;2023-04-24T05:47:47;0.60;;;0.40;;
38609;SDS011;24367;51.640;9.566;2023-04-24T05:50:15;0.98;;;0.50;;
38609;SDS011;24367;51.640;9.566;2023-04-24T05:52:42;0.88;;;0.60;;
38609;SDS011;24367;51.640;9.566;2023-04-24T05:55:21;2.08;;;0.60;;
38609;SDS011;24367;51.640;9.566;2023-04-24T05:57:48;2.15;;;0.55;;
38609;SDS011;24367;51.640;9.566;2023-04-24T06:00:14;0.90;;;0.47;;
38609;SDS011;24367;51.640;9.566;2023-04-24T06:02:51;0.88;;;0.50;;
38609;SDS011;24367;51.640;9.566;2023-04-24T06:05:17;0.75;;;0.40;;
38609;SDS011;24367;51.640;9.566;2023-04-24T06:07:44;0.77;;;0.55;;
38609;SDS011;24367;51.640;9.566;2023-04-24T06:10:11;0.80;;;0.40;;
38609;SDS011;24367;51.640;9.566;2023-04-24T06:12:40;0.80;;;0.50;;
38609;SDS011;24367;51.640;9.566;2023-04-24T06:15:13;0.68;;;0.40;;
38609;SDS011;24367;51.640;9.566;2023-04-24T06:17:57;1.42;;;0.50;;
38609;SDS011;24367;51.640;9.566;2023-04-24T06:20:25;1.23;;;0.40;;
38609;SDS011;24367;51.640;9.566;2023-04-24T06:22:51;0.98;;;0.50;;
38609;SDS011;24367;51.640;9.566;2023-04-24T06:25:19;1.50;;;0.50;;
38609;SDS011;24367;51.640;9.566;2023-04-24T06:27:46;0.88;;;0.50;;
38609;SDS011;24367;51.640;9.566;2023-04-24T06:30:13;1.58;;;0.50;;
38609;SDS011;24367;51.640;9.566;2023-04-24T06:32:40;0.90;;;0.50;;
38609;SDS011;24367;51.640;9.566;2023-04-24T06:35:08;0.93;;;0.40;;
38609;SDS011;24367;51.640;9.566;2023-04-24T06:37:37;2.00;;;0.35;;
38609;SDS011;24367;51.640;9.566;2023-04-24T06:40:03;1.58;;;0.50;;
38609;SDS011;24367;51.640;9.566;2023-04-24T06:42:31;0.60;;;0.38;;
38609;SDS011;24367;51.640;9.566;2023-04-24T06:44:57;0.98;;;0.60;;
38609;SDS011;24367;51.640;9.566;2023-04-24T06:47:23;0.68;;;0.35;;
38609;SDS011;24367;51.640;9.566;2023-04-24T06:49:50;0.80;;;0.40;;
38609;SDS011;24367;51.640;9.566;2023-04-24T06:52:19;0.80;;;0.40;;
38609;SDS011;24367;51.640;9.566;2023-04-24T06:54:45;0.82;;;0.50;;
38609;SDS011;24367;51.640;9.566;2023-04-24T06:57:12;0.65;;;0.40;;
38609;SDS011;24367;51.640;9.566;2023-04-24T06:59:38;1.35;;;0.50;;
38609;SDS011;24367;51.640;9.566;2023-04-24T07:02:04;2.92;;;0.52;;
38609;SDS011;24367;51.640;9.566;2023-04-24T07:04:31;2.03;;;0.52;;
38609;SDS011;24367;51.640;9.566;2023-04-24T07:06:57;8.00;;;0.70;;
38609;SDS011;24367;51.640;9.566;2023-04-24T07:09:25;2.15;;;0.50;;
38609;SDS011;24367;51.640;9.566;2023-04-24T07:11:52;7.20;;;0.70;;
38609;SDS011;24367;51.640;9.566;2023-04-24T07:14:19;4.78;;;0.50;;
38609;SDS011;24367;51.640;9.566;2023-04-24T07:16:45;1.02;;;0.43;;
38609;SDS011;24367;51.640;9.566;2023-04-24T07:19:12;2.22;;;0.40;;
38609;SDS011;24367;51.640;9.566;2023-04-24T07:21:39;5.30;;;0.60;;
38609;SDS011;24367;51.640;9.566;2023-04-24T07:24:05;2.58;;;0.60;;
38609;SDS011;24367;51.640;9.566;2023-04-24T07:26:35;2.72;;;0.47;;
38609;SDS011;24367;51.640;9.566;2023-04-24T07:29:02;1.25;;;0.47;;
38609;SDS011;24367;51.640;9.566;2023-04-24T07:31:28;1.35;;;0.40;;
38609;SDS011;24367;51.640;9.566;2023-04-24T07:33:55;4.35;;;0.47;;
38609;SDS011;24367;51.640;9.566;2023-04-24T07:36:22;3.50;;;0.65;;
38609;SDS011;24367;51.640;9.566;2023-04-24T07:38:49;4.75;;;0.73;;
38609;SDS011;24367;51.640;9.566;2023-04-24T07:41:15;1.77;;;0.50;;
38609;SDS011;24367;51.640;9.566;2023-04-24T07:43:44;3.10;;;0.57;;
38609;SDS011;24367;51.640;9.566;2023-04-24T07:46:10;3.70;;;0.60;;
38609;SDS011;24367;51.640;9.566;2023-04-24T07:48:37;4.60;;;0.82;;
38609;SDS011;24367;51.640;9.566;2023-04-24T07:51:04;3.42;;;0.50;;
38609;SDS011;24367;51.640;9.566;2023-04-24T07:53:30;3.38;;;0.50;;
38609;SDS011;24367;51.640;9.566;2023-04-24T07:55:56;2.33;;;0.47;;
38609;SDS011;24367;51.640;9.566;2023-04-24T07:58:23;3.53;;;0.80;;
38609;SDS011;24367;51.640;9.566;2023-04-24T08:00:51;2.17;;;0.43;;
38609;SDS011;24367;51.640;9.566;2023-04-24T08:03:17;1.85;;;0.70;;
38609;SDS011;24367;51.640;9.566;2023-04-24T08:05:44;3.10;;;0.70;;
38609;SDS011;24367;51.640;9.566;2023-04-24T08:08:11;6.80;;;0.80;;
38609;SDS011;24367;51.640;9.566;2023-04-24T08:10:37;2.72;;;0.70;;
38609;SDS011;24367;51.640;9.566;2023-04-24T08:13:04;4.57;;;0.80;;
38609;SDS011;24367;51.640;9.566;2023-04-24T08:15:31;6.85;;;1.10;;
38609;SDS011;24367;51.640;9.566;2023-04-24T08:17:58;2.90;;;0.70;;
38609;SDS011;24367;51.640;9.566;2023-04-24T08:20:25;7.85;;;0.68;;
38609;SDS011;24367;51.640;9.566;2023-04-24T08:22:51;1.63;;;0.50;;
38609;SDS011;24367;51.640;9.566;2023-04-24T08:25:19;4.10;;;0.65;;
38609;SDS011;24367;51.640;9.566;2023-04-24T08:27:45;1.90;;;0.70;;
38609;SDS011;24367;51.640;9.566;2023-04-24T08:30:12;3.20;;;0.57;;
38609;SDS011;24367;51.640;9.566;2023-04-24T08:32:38;2.17;;;0.70;;
38609;SDS011;24367;51.640;9.566;2023-04-24T08:35:06;2.95;;;0.80;;
38609;SDS011;24367;51.640;9.566;2023-04-24T08:37:34;4.18;;;0.60;;
38609;SDS011;24367;51.640;9.566;2023-04-24T08:40:01;2.22;;;0.55;;
38609;SDS011;24367;51.640;9.566;2023-04-24T08:42:28;6.32;;;0.90;;
38609;SDS011;24367;51.640;9.566;2023-04-24T08:44:54;1.42;;;0.50;;
38609;SDS011;24367;51.640;9.566;2023-04-24T08:47:21;2.25;;;0.70;;
38609;SDS011;24367;51.640;9.566;2023-04-24T08:49:49;2.20;;;0.60;;
38609;SDS011;24367;51.640;9.566;2023-04-24T08:52:17;2.70;;;0.80;;
38609;SDS011;24367;51.640;9.566;2023-04-24T08:54:45;2.38;;;0.60;;
38609;SDS011;24367;51.640;9.566;2023-04-24T08:57:12;3.70;;;0.85;;
38609;SDS011;24367;51.640;9.566;2023-04-24T08:59:40;5.00;;;1.10;;
38609;SDS011;24367;51.640;9.566;2023-04-24T09:02:08;3.17;;;1.00;;
38609;SDS011;24367;51.640;9.566;2023-04-24T09:04:36;2.85;;;0.90;;
38609;SDS011;24367;51.640;9.566;2023-04-24T09:07:03;3.95;;;0.95;;
38609;SDS011;24367;51.640;9.566;2023-04-24T09:09:33;5.47;;;0.80;;
38609;SDS011;24367;51.640;9.566;2023-04-24T09:12:00;1.75;;;1.00;;
38609;SDS011;24367;51.640;9.566;2023-04-24T09:14:28;4.18;;;1.20;;
38609;SDS011;24367;51.640;9.566;2023-04-24T09:16:57;4.28;;;0.80;;
38609;SDS011;24367;51.640;9.566;2023-04-24T09:19:23;4.30;;;0.80;;
38609;SDS011;24367;51.640;9.566;2023-04-24T09:21:49;2.95;;;1.05;;
38609;SDS011;24367;51.640;9.566;2023-04-24T09:24:20;3.47;;;0.85;;
38609;SDS011;24367;51.640;9.566;2023-04-24T09:26:57;2.92;;;1.00;;
38609;SDS011;24367;51.640;9.566;2023-04-24T09:29:28;2.47;;;0.90;;
38609;SDS011;24367;51.640;9.566;2023-04-24T09:31:55;2.70;;;0.80;;
38609;SDS011;24367;51.640;9.566;2023-04-24T09:34:21;2.80;;;0.70;;
38609;SDS011;24367;51.640;9.566;2023-04-24T09:36:49;3.60;;;0.63;;
38609;SDS011;24367;51.640;9.566;2023-04-24T09:39:16;2.10;;;0.98;;
38609;SDS011;24367;51.640;9.566;2023-04-24T09:41:45;3.15;;;0.80;;
38609;SDS011;24367;51.640;9.566;2023-04-24T09:44:14;1.52;;;0.80;;
38609;SDS011;24367;51.640;9.566;2023-04-24T09:46:41;3.85;;;0.82;;
38609;SDS011;24367;51.640;9.566;2023-04-24T09:49:09;1.83;;;0.65;;
38609;SDS011;24367;51.640;9.566;2023-04-24T09:51:37;4.13;;;0.90;;
38609;SDS011;24367;51.640;9.566;2023-04-24T09:54:04;2.72;;;0.73;;
38609;SDS011;24367;51.640;9.566;2023-04-24T09:56:34;2.65;;;0.60;;
38609;SDS011;24367;51.640;9.566;2023-04-24T09:59:06;3.88;;;0.60;;
38609;SDS011;24367;51.640;9.566;2023-04-24T10:01:35;3.13;;;0.70;;
38609;SDS011;24367;51.640;9.566;2023-04-24T10:04:03;3.08;;;0.73;;
38609;SDS011;24367;51.640;9.566;2023-04-24T10:06:33;3.10;;;0.60;;
38609;SDS011;24367;51.640;9.566;2023-04-24T10:09:00;1.80;;;0.88;;
38609;SDS011;24367;51.640;9.566;2023-04-24T10:11:28;1.20;;;0.60;;
38609;SDS011;24367;51.640;9.566;2023-04-24T10:13:56;1.30;;;0.70;;
38609;SDS011;24367;51.640;9.566;2023-04-24T10:16:23;1.27;;;0.63;;
38609;SDS011;24367;51.640;9.566;2023-04-24T10:18:53;0.95;;;0.60;;
38609;SDS011;24367;51.640;9.566;2023-04-24T10:21:20;2.72;;;0.73;;
38609;SDS011;24367;51.640;9.566;2023-04-24T10:23:47;3.05;;;0.90;;
38609;SDS011;24367;51.640;9.566;2023-04-24T10:26:15;1.65;;;0.70;;
38609;SDS011;24367;51.640;9.566;2023-04-24T10:28:44;0.75;;;0.50;;
38609;SDS011;24367;51.640;9.566;2023-04-24T10:31:11;2.80;;;0.70;;
38609;SDS011;24367;51.640;9.566;2023-04-24T10:33:38;1.25;;;0.50;;
38609;SDS011;24367;51.640;9.566;2023-04-24T10:36:07;1.48;;;0.60;;
38609;SDS011;24367;51.640;9.566;2023-04-24T10:38:35;1.30;;;0.70;;
38609;SDS011;24367;51.640;9.566;2023-04-24T10:41:08;1.40;;;0.60;;
38609;SDS011;24367;51.640;9.566;2023-04-24T10:43:40;1.08;;;0.57;;
38609;SDS011;24367;51.640;9.566;2023-04-24T10:46:07;0.98;;;0.50;;
38609;SDS011;24367;51.640;9.566;2023-04-24T10:48:35;1.30;;;0.60;;
38609;SDS011;24367;51.640;9.566;2023-04-24T10:51:02;1.27;;;0.57;;
38609;SDS011;24367;51.640;9.566;2023-04-24T10:53:32;2.35;;;0.73;;
38609;SDS011;24367;51.640;9.566;2023-04-24T10:56:02;1.40;;;0.60;;
38609;SDS011;24367;51.640;9.566;2023-04-24T10:58:36;2.45;;;0.68;;
38609;SDS011;24367;51.640;9.566;2023-04-24T11:01:05;3.03;;;0.70;;
38609;SDS011;24367;51.640;9.566;2023-04-24T11:03:33;1.70;;;0.75;;
38609;SDS011;24367;51.640;9.566;2023-04-24T11:06:02;1.67;;;0.80;;
38609;SDS011;24367;51.640;9.566;2023-04-24T11:08:36;2.55;;;0.82;;
38609;SDS011;24367;51.640;9.566;2023-04-24T11:11:08;1.90;;;0.60;;
38609;SDS011;24367;51.640;9.566;2023-04-24T11:16:30;1.35;;;0.50;;
38609;SDS011;24367;51.640;9.566;2023-04-24T11:19:02;1.20;;;0.70;;
38609;SDS011;24367;51.640;9.566;2023-04-24T11:21:38;0.88;;;0.55;;
38609;SDS011;24367;51.640;9.566;2023-04-24T11:24:27;1.23;;;0.50;;
38609;SDS011;24367;51.640;9.566;2023-04-24T11:26:56;1.08;;;0.70;;
38609;SDS011;24367;51.640;9.566;2023-04-24T11:29:37;2.38;;;0.50;;
38609;SDS011;24367;51.640;9.566;2023-04-24T11:32:15;1.00;;;0.50;;
38609;SDS011;24367;51.640;9.566;2023-04-24T11:34:45;1.27;;;0.70;;
38609;SDS011;24367;51.640;9.566;2023-04-24T11:37:12;1.83;;;0.60;;
38609;SDS011;24367;51.640;9.566;2023-04-24T11:39:40;0.68;;;0.50;;
38609;SDS011;24367;51.640;9.566;2023-04-24T11:42:06;1.33;;;0.68;;
38609;SDS011;24367;51.640;9.566;2023-04-24T11:44:33;0.75;;;0.40;;
38609;SDS011;24367;51.640;9.566;2023-04-24T11:47:00;1.25;;;0.60;;
38609;SDS011;24367;51.640;9.566;2023-04-24T11:49:26;0.90;;;0.52;;
38609;SDS011;24367;51.640;9.566;2023-04-24T11:51:54;1.35;;;0.50;;
38609;SDS011;24367;51.640;9.566;2023-04-24T11:54:21;1.77;;;0.60;;
38609;SDS011;24367;51.640;9.566;2023-04-24T11:56:49;1.58;;;0.60;;
38609;SDS011;24367;51.640;9.566;2023-04-24T11:59:15;1.65;;;0.50;;
38609;SDS011;24367;51.640;9.566;2023-04-24T12:01:42;0.88;;;0.47;;
38609;SDS011;24367;51.640;9.566;2023-04-24T12:04:10;1.02;;;0.50;;
38609;SDS011;24367;51.640;9.566;2023-04-24T12:06:37;1.05;;;0.50;;
38609;SDS011;24367;51.640;9.566;2023-04-24T12:09:03;1.05;;;0.52;;
38609;SDS011;24367;51.640;9.566;2023-04-24T12:11:30;1.95;;;0.40;;
38609;SDS011;24367;51.640;9.566;2023-04-24T12:13:58;0.73;;;0.50;;
38609;SDS011;24367;51.640;9.566;2023-04-24T12:16:36;1.33;;;0.60;;
38609;SDS011;24367;51.640;9.566;2023-04-24T12:19:02;1.27;;;0.70;;
38609;SDS011;24367;51.640;9.566;2023-04-24T12:21:28;0.93;;;0.57;;
38609;SDS011;24367;51.640;9.566;2023-04-24T12:23:55;1.27;;;0.63;;
38609;SDS011;24367;51.640;9.566;2023-04-24T12:26:21;2.22;;;0.60;;
38609;SDS011;24367;51.640;9.566;2023-04-24T12:28:49;0.82;;;0.50;;
38609;SDS011;24367;51.640;9.566;2023-04-24T12:31:17;1.02;;;0.50;;
38609;SDS011;24367;51.640;9.566;2023-04-24T12:33:43;1.02;;;0.60;;
38609;SDS011;24367;51.640;9.566;2023-04-24T12:36:10;1.15;;;0.65;;
38609;SDS011;24367;51.640;9.566;2023-04-24T12:38:38;0.93;;;0.52;;
38609;SDS011;24367;51.640;9.566;2023-04-24T12:41:06;2.03;;;0.60;;
38609;SDS011;24367;51.640;9.566;2023-04-24T12:43:35;0.60;;;0.40;;
38609;SDS011;24367;51.640;9.566;2023-04-24T12:46:02;1.48;;;0.63;;
38609;SDS011;24367;51.640;9.566;2023-04-24T12:48:30;0.85;;;0.43;;
38609;SDS011;24367;51.640;9.566;2023-04-24T12:50:57;1.20;;;0.57;;
38609;SDS011;24367;51.640;9.566;2023-04-24T12:53:26;0.50;;;0.30;;
38609;SDS011;24367;51.640;9.566;2023-04-24T12:55:54;3.95;;;0.50;;
38609;SDS011;24367;51.640;9.566;2023-04-24T12:58:21;1.27;;;0.60;;
38609;SDS011;24367;51.640;9.566;2023-04-24T13:00:47;0.88;;;0.40;;
38609;SDS011;24367;51.640;9.566;2023-04-24T13:03:14;2.65;;;0.73;;
38609;SDS011;24367;51.640;9.566;2023-04-24T13:05:42;1.92;;;0.40;;
38609;SDS011;24367;51.640;9.566;2023-04-24T13:08:09;0.80;;;0.30;;
38609;SDS011;24367;51.640;9.566;2023-04-24T13:10:35;1.67;;;0.47;;
38609;SDS011;24367;51.640;9.566;2023-04-24T13:13:02;2.63;;;0.50;;
38609;SDS011;24367;51.640;9.566;2023-04-24T13:15:28;2.30;;;0.57;;
38609;SDS011;24367;51.640;9.566;2023-04-24T13:17:55;5.68;;;0.60;;
38609;SDS011;24367;51.640;9.566;2023-04-24T13:20:22;1.83;;;0.50;;
38609;SDS011;24367;51.640;9.566;2023-04-24T13:22:49;1.67;;;0.52;;
38609;SDS011;24367;51.640;9.566;2023-04-24T13:25:16;0.85;;;0.50;;
38609;SDS011;24367;51.640;9.566;2023-04-24T13:27:43;2.00;;;0.40;;
38609;SDS011;24367;51.640;9.566;2023-04-24T13:30:10;2.75;;;0.50;;
38609;SDS011;24367;51.640;9.566;2023-04-24T13:32:36;1.77;;;0.60;;
38609;SDS011;24367;51.640;9.566;2023-04-24T13:35:03;1.25;;;0.47;;
38609;SDS011;24367;51.640;9.566;2023-04-24T13:37:30;0.60;;;0.40;;
38609;SDS011;24367;51.640;9.566;2023-04-24T13:39:58;1.00;;;0.50;;
38609;SDS011;24367;51.640;9.566;2023-04-24T13:42:24;0.70;;;0.40;;
38609;SDS011;24367;51.640;9.566;2023-04-24T13:44:51;2.15;;;0.50;;
38609;SDS011;24367;51.640;9.566;2023-04-24T13:47:19;1.77;;;0.50;;
38609;SDS011;24367;51.640;9.566;2023-04-24T13:49:45;4.50;;;0.57;;
38609;SDS011;24367;51.640;9.566;2023-04-24T13:52:11;1.55;;;0.45;;
38609;SDS011;24367;51.640;9.566;2023-04-24T13:54:39;2.03;;;0.50;;
38609;SDS011;24367;51.640;9.566;2023-04-24T13:57:06;4.95;;;0.95;;
38609;SDS011;24367;51.640;9.566;2023-04-24T13:59:33;2.83;;;0.80;;
38609;SDS011;24367;51.640;9.566;2023-04-24T14:01:59;5.43;;;0.50;;
38609;SDS011;24367;51.640;9.566;2023-04-24T14:04:26;3.80;;;0.50;;
38609;SDS011;24367;51.640;9.566;2023-04-24T14:06:53;4.13;;;0.85;;
38609;SDS011;24367;51.640;9.566;2023-04-24T14:09:19;4.63;;;0.60;;
38609;SDS011;24367;51.640;9.566;2023-04-24T14:11:45;2.25;;;0.52;;
38609;SDS011;24367;51.640;9.566;2023-04-24T14:14:13;2.08;;;0.60;;
38609;SDS011;24367;51.640;9.566;2023-04-24T14:16:40;2.70;;;0.50;;
38609;SDS011;24367;51.640;9.566;2023-04-24T14:19:06;2.45;;;0.40;;
38609;SDS011;24367;51.640;9.566;2023-04-24T14:21:33;5.60;;;0.77;;
38609;SDS011;24367;51.640;9.566;2023-04-24T14:23:59;2.70;;;0.60;;
38609;SDS011;24367;51.640;9.566;2023-04-24T14:26:26;2.03;;;0.50;;
38609;SDS011;24367;51.640;9.566;2023-04-24T14:28:52;5.40;;;0.52;;
38609;SDS011;24367;51.640;9.566;2023-04-24T14:31:21;4.22;;;0.60;;
38609;SDS011;24367;51.640;9.566;2023-04-24T14:33:47;5.80;;;0.80;;
38609;SDS011;24367;51.640;9.566;2023-04-24T14:36:14;5.32;;;0.90;;
38609;SDS011;24367;51.640;9.566;2023-04-24T14:38:40;7.03;;;0.90;;
38609;SDS011;24367;51.640;9.566;2023-04-24T14:41:07;11.70;;;1.25;;
38609;SDS011;24367;51.640;9.566;2023-04-24T14:43:35;12.02;;;1.17;;
38609;SDS011;24367;51.640;9.566;2023-04-24T14:46:01;9.23;;;1.08;;
38609;SDS011;24367;51.640;9.566;2023-04-24T14:48:29;11.27;;;1.55;;
38609;SDS011;24367;51.640;9.566;2023-04-24T14:50:56;16.10;;;1.40;;
38609;SDS011;24367;51.640;9.566;2023-04-24T14:53:22;20.58;;;1.40;;
38609;SDS011;24367;51.640;9.566;2023-04-24T14:55:49;11.52;;;1.30;;